sensor_id;sensor_type;location;lat;lon;timestamp;temperature;humidity
79762;DHT22;69249;42.122;24.734;2023-05-10T00:01:47;14.40;58.90
79762;DHT22;69249;42.122;24.734;2023-05-10T00:04:13;14.30;59.30
79762;DHT22;69249;42.122;24.734;2023-05-10T00:06:39;14.40;58.80
79762;DHT22;69249;42.122;24.734;2023-05-10T00:09:04;14.20;58.80
79762;DHT22;69249;42.122;24.734;2023-05-10T00:11:30;14.30;59.00
79762;DHT22;69249;42.122;24.734;2023-05-10T00:13:56;14.30;58.70
79762;DHT22;69249;42.122;24.734;2023-05-10T00:16:22;14.30;58.80
79762;DHT22;69249;42.122;24.734;2023-05-10T00:18:48;14.20;59.00
79762;DHT22;69249;42.122;24.734;2023-05-10T00:21:13;14.30;59.10
79762;DHT22;69249;42.122;24.734;2023-05-10T00:23:39;14.30;59.30
79762;DHT22;69249;42.122;24.734;2023-05-10T00:26:05;14.20;59.20
79762;DHT22;69249;42.122;24.734;2023-05-10T00:28:30;14.20;59.40
79762;DHT22;69249;42.122;24.734;2023-05-10T00:30:56;14.20;59.60
79762;DHT22;69249;42.122;24.734;2023-05-10T00:33:22;14.20;59.60
79762;DHT22;69249;42.122;24.734;2023-05-10T00:35:47;14.10;60.00
79762;DHT22;69249;42.122;24.734;2023-05-10T00:38:13;14.10;60.40
79762;DHT22;69249;42.122;24.734;2023-05-10T00:40:39;14.20;60.60
79762;DHT22;69249;42.122;24.734;2023-05-10T00:43:05;14.20;60.70
79762;DHT22;69249;42.122;24.734;2023-05-10T00:45:33;14.20;60.80
79762;DHT22;69249;42.122;24.734;2023-05-10T00:48:00;14.20;61.00
79762;DHT22;69249;42.122;24.734;2023-05-10T00:50:28;14.10;61.50
79762;DHT22;69249;42.122;24.734;2023-05-10T00:52:54;14.00;62.00
79762;DHT22;69249;42.122;24.734;2023-05-10T00:55:20;14.00;62.40
79762;DHT22;69249;42.122;24.734;2023-05-10T00:57:47;14.00;62.40
79762;DHT22;69249;42.122;24.734;2023-05-10T01:00:13;14.00;62.60
79762;DHT22;69249;42.122;24.734;2023-05-10T01:02:46;14.00;62.80
79762;DHT22;69249;42.122;24.734;2023-05-10T01:05:12;14.00;62.70
79762;DHT22;69249;42.122;24.734;2023-05-10T01:07:39;14.00;63.20
79762;DHT22;69249;42.122;24.734;2023-05-10T01:10:06;14.10;62.90
79762;DHT22;69249;42.122;24.734;2023-05-10T01:12:33;14.00;62.90
79762;DHT22;69249;42.122;24.734;2023-05-10T01:15:00;14.00;62.80
79762;DHT22;69249;42.122;24.734;2023-05-10T01:17:27;14.10;62.70
79762;DHT22;69249;42.122;24.734;2023-05-10T01:19:53;14.00;62.70
79762;DHT22;69249;42.122;24.734;2023-05-10T01:25:40;13.90;63.40
79762;DHT22;69249;42.122;24.734;2023-05-10T01:31:22;14.10;63.30
79762;DHT22;69249;42.122;24.734;2023-05-10T01:33:59;14.00;63.40
79762;DHT22;69249;42.122;24.734;2023-05-10T01:36:30;13.90;63.40
79762;DHT22;69249;42.122;24.734;2023-05-10T01:44:36;13.80;64.40
79762;DHT22;69249;42.122;24.734;2023-05-10T01:47:15;13.90;63.80
79762;DHT22;69249;42.122;24.734;2023-05-10T01:49:54;14.00;64.10
79762;DHT22;69249;42.122;24.734;2023-05-10T01:52:26;14.10;63.50
79762;DHT22;69249;42.122;24.734;2023-05-10T01:54:57;14.00;63.20
79762;DHT22;69249;42.122;24.734;2023-05-10T01:57:26;14.00;64.20
79762;DHT22;69249;42.122;24.734;2023-05-10T01:59:54;14.00;63.20
79762;DHT22;69249;42.122;24.734;2023-05-10T02:02:20;13.90;63.40
79762;DHT22;69249;42.122;24.734;2023-05-10T02:04:47;13.90;63.50
79762;DHT22;69249;42.122;24.734;2023-05-10T02:07:14;13.90;63.50
79762;DHT22;69249;42.122;24.734;2023-05-10T02:09:43;14.00;63.60
79762;DHT22;69249;42.122;24.734;2023-05-10T02:12:09;13.80;63.40
79762;DHT22;69249;42.122;24.734;2023-05-10T02:14:37;13.80;63.90
79762;DHT22;69249;42.122;24.734;2023-05-10T02:17:05;13.90;63.50
79762;DHT22;69249;42.122;24.734;2023-05-10T02:19:34;13.90;63.30
79762;DHT22;69249;42.122;24.734;2023-05-10T02:22:01;13.90;63.30
79762;DHT22;69249;42.122;24.734;2023-05-10T02:24:28;13.80;63.50
79762;DHT22;69249;42.122;24.734;2023-05-10T02:26:55;13.80;63.30
79762;DHT22;69249;42.122;24.734;2023-05-10T02:29:25;13.80;63.40
79762;DHT22;69249;42.122;24.734;2023-05-10T02:31:53;13.70;63.60
79762;DHT22;69249;42.122;24.734;2023-05-10T02:34:21;13.70;63.20
79762;DHT22;69249;42.122;24.734;2023-05-10T02:36:49;13.60;63.70
79762;DHT22;69249;42.122;24.734;2023-05-10T02:39:16;13.60;63.90
79762;DHT22;69249;42.122;24.734;2023-05-10T02:41:45;13.60;64.20
79762;DHT22;69249;42.122;24.734;2023-05-10T02:44:13;13.70;64.20
79762;DHT22;69249;42.122;24.734;2023-05-10T02:46:39;13.60;64.10
79762;DHT22;69249;42.122;24.734;2023-05-10T02:49:05;13.60;64.70
79762;DHT22;69249;42.122;24.734;2023-05-10T02:51:32;13.60;64.60
79762;DHT22;69249;42.122;24.734;2023-05-10T02:54:20;13.70;64.20
79762;DHT22;69249;42.122;24.734;2023-05-10T02:56:57;13.70;63.80
79762;DHT22;69249;42.122;24.734;2023-05-10T02:59:23;13.70;64.20
79762;DHT22;69249;42.122;24.734;2023-05-10T03:01:49;13.60;64.20
79762;DHT22;69249;42.122;24.734;2023-05-10T03:04:15;13.70;64.60
79762;DHT22;69249;42.122;24.734;2023-05-10T03:06:41;13.60;64.50
79762;DHT22;69249;42.122;24.734;2023-05-10T03:09:07;13.60;64.70
79762;DHT22;69249;42.122;24.734;2023-05-10T03:12:11;13.60;64.50
79762;DHT22;69249;42.122;24.734;2023-05-10T03:19:58;13.60;64.80
79762;DHT22;69249;42.122;24.734;2023-05-10T03:22:32;13.60;65.30
79762;DHT22;69249;42.122;24.734;2023-05-10T03:25:00;13.50;65.30
79762;DHT22;69249;42.122;24.734;2023-05-10T03:27:30;13.50;65.30
79762;DHT22;69249;42.122;24.734;2023-05-10T03:29:57;13.60;65.30
79762;DHT22;69249;42.122;24.734;2023-05-10T03:32:23;13.60;65.00
79762;DHT22;69249;42.122;24.734;2023-05-10T03:34:48;13.70;65.30
79762;DHT22;69249;42.122;24.734;2023-05-10T03:37:14;13.60;65.20
79762;DHT22;69249;42.122;24.734;2023-05-10T03:39:40;13.70;65.20
79762;DHT22;69249;42.122;24.734;2023-05-10T03:42:05;13.70;65.40
79762;DHT22;69249;42.122;24.734;2023-05-10T03:44:31;13.70;65.30
79762;DHT22;69249;42.122;24.734;2023-05-10T03:46:58;13.70;65.00
79762;DHT22;69249;42.122;24.734;2023-05-10T03:49:24;13.70;65.40
79762;DHT22;69249;42.122;24.734;2023-05-10T03:51:50;13.80;65.20
79762;DHT22;69249;42.122;24.734;2023-05-10T03:54:15;13.90;64.90
79762;DHT22;69249;42.122;24.734;2023-05-10T03:56:41;13.90;64.70
79762;DHT22;69249;42.122;24.734;2023-05-10T03:59:07;14.10;64.70
79762;DHT22;69249;42.122;24.734;2023-05-10T04:01:34;14.10;64.30
79762;DHT22;69249;42.122;24.734;2023-05-10T04:04:00;14.00;63.90
79762;DHT22;69249;42.122;24.734;2023-05-10T04:06:26;13.90;63.90
79762;DHT22;69249;42.122;24.734;2023-05-10T04:08:51;14.00;63.90
79762;DHT22;69249;42.122;24.734;2023-05-10T04:11:17;14.00;63.90
79762;DHT22;69249;42.122;24.734;2023-05-10T04:13:43;14.10;63.90
79762;DHT22;69249;42.122;24.734;2023-05-10T04:16:08;14.30;63.40
79762;DHT22;69249;42.122;24.734;2023-05-10T04:18:34;14.40;62.80
79762;DHT22;69249;42.122;24.734;2023-05-10T04:21:00;14.50;62.60
79762;DHT22;69249;42.122;24.734;2023-05-10T04:23:27;14.60;61.80
79762;DHT22;69249;42.122;24.734;2023-05-10T04:25:58;14.40;61.90
79762;DHT22;69249;42.122;24.734;2023-05-10T04:28:24;14.40;61.60
79762;DHT22;69249;42.122;24.734;2023-05-10T04:30:50;14.40;61.70
79762;DHT22;69249;42.122;24.734;2023-05-10T04:33:15;14.50;61.90
79762;DHT22;69249;42.122;24.734;2023-05-10T04:35:41;14.60;61.40
79762;DHT22;69249;42.122;24.734;2023-05-10T04:38:07;14.70;61.70
79762;DHT22;69249;42.122;24.734;2023-05-10T04:40:32;14.80;60.80
79762;DHT22;69249;42.122;24.734;2023-05-10T04:43:00;14.80;61.00
79762;DHT22;69249;42.122;24.734;2023-05-10T04:45:26;14.90;60.30
79762;DHT22;69249;42.122;24.734;2023-05-10T04:47:53;14.90;59.60
79762;DHT22;69249;42.122;24.734;2023-05-10T04:50:19;14.80;59.80
79762;DHT22;69249;42.122;24.734;2023-05-10T04:52:44;14.90;59.30
79762;DHT22;69249;42.122;24.734;2023-05-10T04:55:11;14.80;59.50
79762;DHT22;69249;42.122;24.734;2023-05-10T04:57:39;14.80;60.40
79762;DHT22;69249;42.122;24.734;2023-05-10T05:03:02;14.80;60.00
79762;DHT22;69249;42.122;24.734;2023-05-10T05:05:30;14.90;58.80
79762;DHT22;69249;42.122;24.734;2023-05-10T05:07:56;15.10;58.70
79762;DHT22;69249;42.122;24.734;2023-05-10T05:10:22;15.10;58.40
79762;DHT22;69249;42.122;24.734;2023-05-10T05:12:48;15.10;57.90
79762;DHT22;69249;42.122;24.734;2023-05-10T05:15:14;15.00;58.10
79762;DHT22;69249;42.122;24.734;2023-05-10T05:17:56;15.20;58.30
79762;DHT22;69249;42.122;24.734;2023-05-10T05:20:39;15.30;57.10
79762;DHT22;69249;42.122;24.734;2023-05-10T05:23:07;15.20;56.90
79762;DHT22;69249;42.122;24.734;2023-05-10T05:25:33;15.30;56.20
79762;DHT22;69249;42.122;24.734;2023-05-10T05:27:59;15.30;56.40
79762;DHT22;69249;42.122;24.734;2023-05-10T05:30:26;15.40;56.90
79762;DHT22;69249;42.122;24.734;2023-05-10T05:32:52;15.40;56.60
79762;DHT22;69249;42.122;24.734;2023-05-10T05:35:18;15.50;56.20
79762;DHT22;69249;42.122;24.734;2023-05-10T05:37:43;15.60;55.90
79762;DHT22;69249;42.122;24.734;2023-05-10T05:40:12;15.50;56.00
79762;DHT22;69249;42.122;24.734;2023-05-10T05:42:38;15.50;56.40
79762;DHT22;69249;42.122;24.734;2023-05-10T05:45:07;15.40;56.80
79762;DHT22;69249;42.122;24.734;2023-05-10T05:47:34;15.30;58.80
79762;DHT22;69249;42.122;24.734;2023-05-10T05:50:36;15.40;55.80
79762;DHT22;69249;42.122;24.734;2023-05-10T05:53:45;15.40;56.70
79762;DHT22;69249;42.122;24.734;2023-05-10T05:56:36;15.50;56.60
79762;DHT22;69249;42.122;24.734;2023-05-10T05:59:37;15.70;56.10
79762;DHT22;69249;42.122;24.734;2023-05-10T06:02:27;15.90;55.50
79762;DHT22;69249;42.122;24.734;2023-05-10T06:05:22;16.10;55.60
79762;DHT22;69249;42.122;24.734;2023-05-10T06:07:55;16.10;55.00
79762;DHT22;69249;42.122;24.734;2023-05-10T06:10:24;16.20;55.40
79762;DHT22;69249;42.122;24.734;2023-05-10T06:12:51;16.30;55.20
79762;DHT22;69249;42.122;24.734;2023-05-10T06:15:17;16.30;54.30
79762;DHT22;69249;42.122;24.734;2023-05-10T06:17:49;16.40;53.60
79762;DHT22;69249;42.122;24.734;2023-05-10T06:20:26;16.60;53.90
79762;DHT22;69249;42.122;24.734;2023-05-10T06:22:54;16.60;53.10
79762;DHT22;69249;42.122;24.734;2023-05-10T06:25:23;16.60;52.50
79762;DHT22;69249;42.122;24.734;2023-05-10T06:30:49;16.60;53.30
79762;DHT22;69249;42.122;24.734;2023-05-10T06:33:14;16.80;53.50
79762;DHT22;69249;42.122;24.734;2023-05-10T06:35:41;16.90;52.30
79762;DHT22;69249;42.122;24.734;2023-05-10T06:38:08;16.90;52.00
79762;DHT22;69249;42.122;24.734;2023-05-10T06:40:34;17.00;51.10
79762;DHT22;69249;42.122;24.734;2023-05-10T06:42:59;17.10;51.10
79762;DHT22;69249;42.122;24.734;2023-05-10T06:45:25;17.10;51.20
79762;DHT22;69249;42.122;24.734;2023-05-10T06:47:51;17.20;51.00
79762;DHT22;69249;42.122;24.734;2023-05-10T06:50:16;17.30;52.00
79762;DHT22;69249;42.122;24.734;2023-05-10T06:52:42;17.40;51.30
79762;DHT22;69249;42.122;24.734;2023-05-10T06:55:08;17.40;51.20
79762;DHT22;69249;42.122;24.734;2023-05-10T06:57:34;17.60;49.30
79762;DHT22;69249;42.122;24.734;2023-05-10T07:00:01;17.40;49.60
79762;DHT22;69249;42.122;24.734;2023-05-10T07:02:27;17.30;49.70
79762;DHT22;69249;42.122;24.734;2023-05-10T07:04:53;17.40;51.10
79762;DHT22;69249;42.122;24.734;2023-05-10T07:07:19;17.40;51.00
79762;DHT22;69249;42.122;24.734;2023-05-10T07:09:45;17.50;49.10
79762;DHT22;69249;42.122;24.734;2023-05-10T07:12:10;17.60;49.10
79762;DHT22;69249;42.122;24.734;2023-05-10T07:14:36;17.60;49.60
79762;DHT22;69249;42.122;24.734;2023-05-10T07:17:02;17.70;49.90
79762;DHT22;69249;42.122;24.734;2023-05-10T07:19:28;17.70;49.00
79762;DHT22;69249;42.122;24.734;2023-05-10T07:21:55;17.90;49.50
79762;DHT22;69249;42.122;24.734;2023-05-10T07:24:21;17.70;49.40
79762;DHT22;69249;42.122;24.734;2023-05-10T07:26:47;17.90;49.30
79762;DHT22;69249;42.122;24.734;2023-05-10T07:29:14;17.90;48.60
79762;DHT22;69249;42.122;24.734;2023-05-10T07:31:43;17.90;49.20
79762;DHT22;69249;42.122;24.734;2023-05-10T07:34:12;17.90;48.70
79762;DHT22;69249;42.122;24.734;2023-05-10T07:36:38;18.10;48.00
79762;DHT22;69249;42.122;24.734;2023-05-10T07:39:04;18.10;48.40
79762;DHT22;69249;42.122;24.734;2023-05-10T07:41:36;18.20;47.90
79762;DHT22;69249;42.122;24.734;2023-05-10T07:44:04;18.20;46.70
79762;DHT22;69249;42.122;24.734;2023-05-10T07:46:50;18.30;45.30
79762;DHT22;69249;42.122;24.734;2023-05-10T07:49:20;18.40;45.90
79762;DHT22;69249;42.122;24.734;2023-05-10T07:51:47;18.40;46.50
79762;DHT22;69249;42.122;24.734;2023-05-10T07:54:14;18.40;46.00
79762;DHT22;69249;42.122;24.734;2023-05-10T07:56:51;18.50;46.40
79762;DHT22;69249;42.122;24.734;2023-05-10T07:59:26;18.60;46.40
79762;DHT22;69249;42.122;24.734;2023-05-10T08:01:52;18.60;45.50
79762;DHT22;69249;42.122;24.734;2023-05-10T08:04:18;18.80;45.60
79762;DHT22;69249;42.122;24.734;2023-05-10T08:06:44;19.00;45.80
79762;DHT22;69249;42.122;24.734;2023-05-10T08:09:10;19.20;45.00
79762;DHT22;69249;42.122;24.734;2023-05-10T08:11:37;19.30;44.20
79762;DHT22;69249;42.122;24.734;2023-05-10T08:14:14;19.40;43.60
79762;DHT22;69249;42.122;24.734;2023-05-10T08:16:41;19.60;43.50
79762;DHT22;69249;42.122;24.734;2023-05-10T08:19:15;19.80;41.90
79762;DHT22;69249;42.122;24.734;2023-05-10T08:21:47;19.90;41.90
79762;DHT22;69249;42.122;24.734;2023-05-10T08:24:13;19.90;40.80
79762;DHT22;69249;42.122;24.734;2023-05-10T08:26:42;20.10;40.80
79762;DHT22;69249;42.122;24.734;2023-05-10T08:29:08;20.10;39.90
79762;DHT22;69249;42.122;24.734;2023-05-10T08:31:34;20.30;41.30
79762;DHT22;69249;42.122;24.734;2023-05-10T08:34:00;20.40;40.20
79762;DHT22;69249;42.122;24.734;2023-05-10T08:36:26;20.60;40.20
79762;DHT22;69249;42.122;24.734;2023-05-10T08:38:54;20.70;40.30
79762;DHT22;69249;42.122;24.734;2023-05-10T08:41:25;20.70;39.00
79762;DHT22;69249;42.122;24.734;2023-05-10T08:43:52;20.80;39.90
79762;DHT22;69249;42.122;24.734;2023-05-10T08:46:21;20.80;39.30
79762;DHT22;69249;42.122;24.734;2023-05-10T08:48:51;20.80;38.90
79762;DHT22;69249;42.122;24.734;2023-05-10T08:51:51;20.80;39.50
79762;DHT22;69249;42.122;24.734;2023-05-10T08:54:27;20.90;38.50
79762;DHT22;69249;42.122;24.734;2023-05-10T08:59:47;20.80;40.20
79762;DHT22;69249;42.122;24.734;2023-05-10T09:02:19;20.80;40.40
79762;DHT22;69249;42.122;24.734;2023-05-10T09:05:01;20.80;38.90
79762;DHT22;69249;42.122;24.734;2023-05-10T09:07:41;20.80;39.80
79762;DHT22;69249;42.122;24.734;2023-05-10T09:10:14;20.70;39.80
79762;DHT22;69249;42.122;24.734;2023-05-10T09:12:53;20.50;39.20
79762;DHT22;69249;42.122;24.734;2023-05-10T09:15:19;20.20;39.30
79762;DHT22;69249;42.122;24.734;2023-05-10T09:17:46;20.20;40.40
79762;DHT22;69249;42.122;24.734;2023-05-10T09:20:12;20.20;40.70
79762;DHT22;69249;42.122;24.734;2023-05-10T09:22:41;20.00;40.90
79762;DHT22;69249;42.122;24.734;2023-05-10T09:25:17;20.00;44.00
79762;DHT22;69249;42.122;24.734;2023-05-10T09:28:01;20.00;42.00
79762;DHT22;69249;42.122;24.734;2023-05-10T09:30:31;19.90;40.90
79762;DHT22;69249;42.122;24.734;2023-05-10T09:32:58;19.90;41.80
79762;DHT22;69249;42.122;24.734;2023-05-10T09:35:26;19.80;41.60
79762;DHT22;69249;42.122;24.734;2023-05-10T09:40:52;19.80;41.40
79762;DHT22;69249;42.122;24.734;2023-05-10T09:43:22;20.00;40.20
79762;DHT22;69249;42.122;24.734;2023-05-10T09:45:53;20.00;40.00
79762;DHT22;69249;42.122;24.734;2023-05-10T09:48:23;20.10;40.30
79762;DHT22;69249;42.122;24.734;2023-05-10T09:50:59;20.20;39.50
79762;DHT22;69249;42.122;24.734;2023-05-10T09:53:25;20.40;40.10
79762;DHT22;69249;42.122;24.734;2023-05-10T09:55:57;20.60;39.10
79762;DHT22;69249;42.122;24.734;2023-05-10T09:59:01;20.90;38.00
79762;DHT22;69249;42.122;24.734;2023-05-10T10:01:28;21.10;38.60
79762;DHT22;69249;42.122;24.734;2023-05-10T10:04:09;21.20;38.00
79762;DHT22;69249;42.122;24.734;2023-05-10T10:07:12;21.20;37.30
79762;DHT22;69249;42.122;24.734;2023-05-10T10:09:39;21.30;38.00
79762;DHT22;69249;42.122;24.734;2023-05-10T10:12:17;21.30;37.90
79762;DHT22;69249;42.122;24.734;2023-05-10T10:15:04;21.20;37.10
79762;DHT22;69249;42.122;24.734;2023-05-10T10:17:31;21.20;38.10
79762;DHT22;69249;42.122;24.734;2023-05-10T10:20:02;21.20;37.50
79762;DHT22;69249;42.122;24.734;2023-05-10T10:22:30;21.20;36.90
79762;DHT22;69249;42.122;24.734;2023-05-10T10:24:57;21.20;38.60
79762;DHT22;69249;42.122;24.734;2023-05-10T10:27:28;21.40;38.10
79762;DHT22;69249;42.122;24.734;2023-05-10T10:30:13;21.60;36.80
79762;DHT22;69249;42.122;24.734;2023-05-10T10:35:44;21.50;36.60
79762;DHT22;69249;42.122;24.734;2023-05-10T10:38:17;21.60;37.20
79762;DHT22;69249;42.122;24.734;2023-05-10T10:40:43;21.80;37.20
79762;DHT22;69249;42.122;24.734;2023-05-10T10:43:23;21.80;35.70
79762;DHT22;69249;42.122;24.734;2023-05-10T10:46:13;21.90;35.70
79762;DHT22;69249;42.122;24.734;2023-05-10T10:48:40;22.00;35.10
79762;DHT22;69249;42.122;24.734;2023-05-10T10:51:06;22.30;34.40
79762;DHT22;69249;42.122;24.734;2023-05-10T10:53:32;22.40;34.40
79762;DHT22;69249;42.122;24.734;2023-05-10T10:56:09;22.40;34.10
79762;DHT22;69249;42.122;24.734;2023-05-10T10:58:37;22.50;32.60
79762;DHT22;69249;42.122;24.734;2023-05-10T11:06:34;22.60;33.40
79762;DHT22;69249;42.122;24.734;2023-05-10T11:09:13;22.60;32.90
79762;DHT22;69249;42.122;24.734;2023-05-10T11:11:54;22.70;32.70
79762;DHT22;69249;42.122;24.734;2023-05-10T11:14:21;22.60;32.10
79762;DHT22;69249;42.122;24.734;2023-05-10T11:16:50;22.60;30.80
79762;DHT22;69249;42.122;24.734;2023-05-10T11:19:17;22.70;31.90
79762;DHT22;69249;42.122;24.734;2023-05-10T11:24:33;23.60;31.50
79762;DHT22;69249;42.122;24.734;2023-05-10T11:27:01;23.50;31.10
79762;DHT22;69249;42.122;24.734;2023-05-10T11:29:26;23.60;31.00
79762;DHT22;69249;42.122;24.734;2023-05-10T11:31:52;24.20;30.50
79762;DHT22;69249;42.122;24.734;2023-05-10T11:34:26;24.80;31.80
79762;DHT22;69249;42.122;24.734;2023-05-10T11:36:55;25.00;29.30
79762;DHT22;69249;42.122;24.734;2023-05-10T11:39:29;25.40;28.80
79762;DHT22;69249;42.122;24.734;2023-05-10T11:41:58;27.10;27.50
79762;DHT22;69249;42.122;24.734;2023-05-10T11:44:33;28.00;25.40
79762;DHT22;69249;42.122;24.734;2023-05-10T11:47:00;28.40;25.00
79762;DHT22;69249;42.122;24.734;2023-05-10T11:49:27;28.90;24.90
79762;DHT22;69249;42.122;24.734;2023-05-10T11:51:53;29.40;24.70
79762;DHT22;69249;42.122;24.734;2023-05-10T11:54:19;28.80;23.70
79762;DHT22;69249;42.122;24.734;2023-05-10T11:56:44;27.90;24.50
79762;DHT22;69249;42.122;24.734;2023-05-10T11:59:13;27.20;24.70
79762;DHT22;69249;42.122;24.734;2023-05-10T12:01:39;26.80;25.30
79762;DHT22;69249;42.122;24.734;2023-05-10T12:04:05;26.30;25.60
79762;DHT22;69249;42.122;24.734;2023-05-10T12:06:32;26.10;26.00
79762;DHT22;69249;42.122;24.734;2023-05-10T12:09:06;26.00;26.50
79762;DHT22;69249;42.122;24.734;2023-05-10T12:11:40;25.90;26.20
79762;DHT22;69249;42.122;24.734;2023-05-10T12:14:06;25.80;25.80
79762;DHT22;69249;42.122;24.734;2023-05-10T12:16:32;25.50;26.60
79762;DHT22;69249;42.122;24.734;2023-05-10T12:18:59;25.00;27.00
79762;DHT22;69249;42.122;24.734;2023-05-10T12:21:29;24.90;27.10
79762;DHT22;69249;42.122;24.734;2023-05-10T12:24:01;25.00;27.20
79762;DHT22;69249;42.122;24.734;2023-05-10T12:26:28;25.00;26.70
79762;DHT22;69249;42.122;24.734;2023-05-10T12:32:09;24.70;26.60
79762;DHT22;69249;42.122;24.734;2023-05-10T12:34:36;24.20;27.60
79762;DHT22;69249;42.122;24.734;2023-05-10T12:37:03;24.00;28.40
79762;DHT22;69249;42.122;24.734;2023-05-10T12:39:43;23.80;28.10
79762;DHT22;69249;42.122;24.734;2023-05-10T12:42:09;24.00;28.20
79762;DHT22;69249;42.122;24.734;2023-05-10T12:44:35;24.10;28.20
79762;DHT22;69249;42.122;24.734;2023-05-10T12:47:01;24.20;28.80
79762;DHT22;69249;42.122;24.734;2023-05-10T12:49:27;24.40;29.10
79762;DHT22;69249;42.122;24.734;2023-05-10T12:51:53;24.30;29.20
79762;DHT22;69249;42.122;24.734;2023-05-10T12:54:19;24.30;28.80
79762;DHT22;69249;42.122;24.734;2023-05-10T12:56:44;24.20;28.70
79762;DHT22;69249;42.122;24.734;2023-05-10T12:59:10;24.20;28.50
79762;DHT22;69249;42.122;24.734;2023-05-10T13:01:36;24.10;28.20
79762;DHT22;69249;42.122;24.734;2023-05-10T13:04:02;23.70;28.60
79762;DHT22;69249;42.122;24.734;2023-05-10T13:06:27;23.30;29.20
79762;DHT22;69249;42.122;24.734;2023-05-10T13:08:53;23.00;30.00
79762;DHT22;69249;42.122;24.734;2023-05-10T13:11:19;22.90;30.90
79762;DHT22;69249;42.122;24.734;2023-05-10T13:13:46;22.70;30.60
79762;DHT22;69249;42.122;24.734;2023-05-10T13:16:12;22.70;30.20
79762;DHT22;69249;42.122;24.734;2023-05-10T13:18:38;23.10;30.00
79762;DHT22;69249;42.122;24.734;2023-05-10T13:21:03;23.60;29.60
79762;DHT22;69249;42.122;24.734;2023-05-10T13:23:30;23.80;28.90
79762;DHT22;69249;42.122;24.734;2023-05-10T13:25:56;23.70;29.30
79762;DHT22;69249;42.122;24.734;2023-05-10T13:28:23;23.40;29.00
79762;DHT22;69249;42.122;24.734;2023-05-10T13:30:48;23.20;30.90
79762;DHT22;69249;42.122;24.734;2023-05-10T13:33:14;22.90;29.70
79762;DHT22;69249;42.122;24.734;2023-05-10T13:35:40;22.70;30.10
79762;DHT22;69249;42.122;24.734;2023-05-10T13:38:06;22.60;30.80
79762;DHT22;69249;42.122;24.734;2023-05-10T13:40:33;22.60;29.70
79762;DHT22;69249;42.122;24.734;2023-05-10T13:42:59;22.50;30.00
79762;DHT22;69249;42.122;24.734;2023-05-10T13:45:25;22.50;30.40
79762;DHT22;69249;42.122;24.734;2023-05-10T13:47:51;22.50;29.60
79762;DHT22;69249;42.122;24.734;2023-05-10T13:50:17;22.50;29.70
79762;DHT22;69249;42.122;24.734;2023-05-10T13:52:43;22.60;30.20
79762;DHT22;69249;42.122;24.734;2023-05-10T13:55:09;22.60;30.00
79762;DHT22;69249;42.122;24.734;2023-05-10T13:57:37;22.70;30.20
79762;DHT22;69249;42.122;24.734;2023-05-10T14:00:03;22.80;30.40
79762;DHT22;69249;42.122;24.734;2023-05-10T14:02:30;22.80;30.20
79762;DHT22;69249;42.122;24.734;2023-05-10T14:04:56;22.90;31.10
79762;DHT22;69249;42.122;24.734;2023-05-10T14:07:22;22.90;30.30
79762;DHT22;69249;42.122;24.734;2023-05-10T14:09:47;22.90;30.00
79762;DHT22;69249;42.122;24.734;2023-05-10T14:12:13;22.80;30.40
79762;DHT22;69249;42.122;24.734;2023-05-10T14:14:40;22.70;30.20
79762;DHT22;69249;42.122;24.734;2023-05-10T14:17:05;22.70;30.00
79762;DHT22;69249;42.122;24.734;2023-05-10T14:19:31;22.90;30.30
79762;DHT22;69249;42.122;24.734;2023-05-10T14:21:59;23.00;30.40
79762;DHT22;69249;42.122;24.734;2023-05-10T14:24:24;23.10;29.50
79762;DHT22;69249;42.122;24.734;2023-05-10T14:26:50;22.90;29.70
79762;DHT22;69249;42.122;24.734;2023-05-10T14:29:19;23.10;30.60
79762;DHT22;69249;42.122;24.734;2023-05-10T14:31:45;23.30;29.60
79762;DHT22;69249;42.122;24.734;2023-05-10T14:34:11;23.20;29.50
79762;DHT22;69249;42.122;24.734;2023-05-10T14:36:36;23.00;29.60
79762;DHT22;69249;42.122;24.734;2023-05-10T14:39:02;22.90;30.10
79762;DHT22;69249;42.122;24.734;2023-05-10T14:41:28;22.80;30.50
79762;DHT22;69249;42.122;24.734;2023-05-10T14:43:55;22.60;31.10
79762;DHT22;69249;42.122;24.734;2023-05-10T14:46:21;22.50;30.50
79762;DHT22;69249;42.122;24.734;2023-05-10T14:48:47;22.40;31.80
79762;DHT22;69249;42.122;24.734;2023-05-10T14:51:12;22.20;31.90
79762;DHT22;69249;42.122;24.734;2023-05-10T14:53:38;21.80;32.30
79762;DHT22;69249;42.122;24.734;2023-05-10T14:56:04;21.60;32.90
79762;DHT22;69249;42.122;24.734;2023-05-10T14:58:30;21.50;33.00
79762;DHT22;69249;42.122;24.734;2023-05-10T15:00:56;21.60;32.70
79762;DHT22;69249;42.122;24.734;2023-05-10T15:03:22;21.60;32.90
79762;DHT22;69249;42.122;24.734;2023-05-10T15:05:48;21.50;33.70
79762;DHT22;69249;42.122;24.734;2023-05-10T15:08:14;21.50;33.10
79762;DHT22;69249;42.122;24.734;2023-05-10T15:10:39;21.50;33.90
79762;DHT22;69249;42.122;24.734;2023-05-10T15:13:05;21.40;33.40
79762;DHT22;69249;42.122;24.734;2023-05-10T15:15:31;21.30;33.90
79762;DHT22;69249;42.122;24.734;2023-05-10T15:17:56;21.30;34.00
79762;DHT22;69249;42.122;24.734;2023-05-10T15:20:22;21.20;33.50
79762;DHT22;69249;42.122;24.734;2023-05-10T15:22:48;21.20;33.60
79762;DHT22;69249;42.122;24.734;2023-05-10T15:25:13;21.20;34.00
79762;DHT22;69249;42.122;24.734;2023-05-10T15:27:41;21.10;33.70
79762;DHT22;69249;42.122;24.734;2023-05-10T15:30:09;21.00;33.80
79762;DHT22;69249;42.122;24.734;2023-05-10T15:32:35;20.90;33.90
79762;DHT22;69249;42.122;24.734;2023-05-10T15:35:01;20.70;34.20
79762;DHT22;69249;42.122;24.734;2023-05-10T15:37:27;20.60;34.60
79762;DHT22;69249;42.122;24.734;2023-05-10T15:39:53;20.50;34.60
79762;DHT22;69249;42.122;24.734;2023-05-10T15:42:19;20.50;35.10
79762;DHT22;69249;42.122;24.734;2023-05-10T15:44:44;20.40;35.60
79762;DHT22;69249;42.122;24.734;2023-05-10T15:47:15;20.20;36.10
79762;DHT22;69249;42.122;24.734;2023-05-10T15:49:41;20.00;35.50
79762;DHT22;69249;42.122;24.734;2023-05-10T15:52:06;19.80;35.80
79762;DHT22;69249;42.122;24.734;2023-05-10T15:54:32;19.70;36.10
79762;DHT22;69249;42.122;24.734;2023-05-10T15:56:58;19.70;36.70
79762;DHT22;69249;42.122;24.734;2023-05-10T15:59:24;19.70;36.90
79762;DHT22;69249;42.122;24.734;2023-05-10T16:01:50;19.60;37.70
79762;DHT22;69249;42.122;24.734;2023-05-10T16:04:16;19.70;37.70
79762;DHT22;69249;42.122;24.734;2023-05-10T16:06:42;19.60;38.10
79762;DHT22;69249;42.122;24.734;2023-05-10T16:09:08;19.50;38.40